sensor_id;sensor_type;location;lat;lon;timestamp;P1;durP1;ratioP1;P2;durP2;ratioP2
42518;SDS011;28147;47.520;18.920;2023-11-21T00:00:54;7.63;;;3.17;;
42518;SDS011;28147;47.520;18.920;2023-11-21T00:03:37;7.20;;;2.80;;
42518;SDS011;28147;47.520;18.920;2023-11-21T00:06:02;6.10;;;2.70;;
42518;SDS011;28147;47.520;18.920;2023-11-21T00:08:28;6.55;;;3.08;;
42518;SDS011;28147;47.520;18.920;2023-11-21T00:10:53;6.30;;;2.80;;
42518;SDS011;28147;47.520;18.920;2023-11-21T00:14:46;8.50;;;3.05;;
42518;SDS011;28147;47.520;18.920;2023-11-21T00:17:12;6.95;;;2.40;;
42518;SDS011;28147;47.520;18.920;2023-11-21T00:20:13;3.63;;;2.08;;
42518;SDS011;28147;47.520;18.920;2023-11-21T00:22:39;3.95;;;2.15;;
42518;SDS011;28147;47.520;18.920;2023-11-21T00:29:59;6.70;;;2.63;;
42518;SDS011;28147;47.520;18.920;2023-11-21T00:32:24;7.30;;;2.50;;
42518;SDS011;28147;47.520;18.920;2023-11-21T00:34:50;5.53;;;2.35;;
42518;SDS011;28147;47.520;18.920;2023-11-21T00:39:35;5.00;;;2.47;;
42518;SDS011;28147;47.520;18.920;2023-11-21T00:43:57;3.97;;;2.20;;
42518;SDS011;28147;47.520;18.920;2023-11-21T00:46:24;8.43;;;2.50;;
42518;SDS011;28147;47.520;18.920;2023-11-21T00:48:52;6.25;;;2.20;;
42518;SDS011;28147;47.520;18.920;2023-11-21T00:53:29;6.25;;;2.88;;
42518;SDS011;28147;47.520;18.920;2023-11-21T00:55:54;6.40;;;2.15;;
42518;SDS011;28147;47.520;18.920;2023-11-21T00:59:55;5.72;;;2.30;;
42518;SDS011;28147;47.520;18.920;2023-11-21T01:02:21;6.47;;;2.50;;
42518;SDS011;28147;47.520;18.920;2023-11-21T01:04:46;5.45;;;2.20;;
42518;SDS011;28147;47.520;18.920;2023-11-21T01:07:12;4.93;;;2.67;;
42518;SDS011;28147;47.520;18.920;2023-11-21T01:09:38;7.63;;;2.83;;
42518;SDS011;28147;47.520;18.920;2023-11-21T01:12:04;8.20;;;2.58;;
42518;SDS011;28147;47.520;18.920;2023-11-21T01:14:29;4.68;;;2.00;;
42518;SDS011;28147;47.520;18.920;2023-11-21T01:16:55;5.65;;;2.30;;
42518;SDS011;28147;47.520;18.920;2023-11-21T01:19:20;4.72;;;1.90;;
42518;SDS011;28147;47.520;18.920;2023-11-21T01:21:46;5.32;;;2.30;;
42518;SDS011;28147;47.520;18.920;2023-11-21T01:24:12;8.43;;;2.40;;
42518;SDS011;28147;47.520;18.920;2023-11-21T01:26:37;6.78;;;2.35;;
42518;SDS011;28147;47.520;18.920;2023-11-21T01:29:03;5.95;;;2.10;;
42518;SDS011;28147;47.520;18.920;2023-11-21T01:31:28;5.72;;;2.38;;
42518;SDS011;28147;47.520;18.920;2023-11-21T01:33:55;5.07;;;2.15;;
42518;SDS011;28147;47.520;18.920;2023-11-21T01:36:21;5.72;;;2.53;;
42518;SDS011;28147;47.520;18.920;2023-11-21T01:38:46;6.85;;;2.20;;
42518;SDS011;28147;47.520;18.920;2023-11-21T01:41:13;6.72;;;2.08;;
42518;SDS011;28147;47.520;18.920;2023-11-21T01:43:39;8.30;;;2.33;;
42518;SDS011;28147;47.520;18.920;2023-11-21T01:46:05;6.43;;;2.22;;
42518;SDS011;28147;47.520;18.920;2023-11-21T01:48:31;6.20;;;2.47;;
42518;SDS011;28147;47.520;18.920;2023-11-21T01:50:57;5.55;;;2.05;;
42518;SDS011;28147;47.520;18.920;2023-11-21T01:53:24;4.30;;;1.90;;
42518;SDS011;28147;47.520;18.920;2023-11-21T01:55:51;5.32;;;2.38;;
42518;SDS011;28147;47.520;18.920;2023-11-21T01:58:16;6.53;;;2.05;;
42518;SDS011;28147;47.520;18.920;2023-11-21T02:04:26;3.25;;;1.73;;
42518;SDS011;28147;47.520;18.920;2023-11-21T02:06:52;5.20;;;1.92;;
42518;SDS011;28147;47.520;18.920;2023-11-21T02:10:37;3.90;;;1.75;;
42518;SDS011;28147;47.520;18.920;2023-11-21T02:15:47;5.55;;;2.40;;
42518;SDS011;28147;47.520;18.920;2023-11-21T02:18:15;4.10;;;1.90;;
42518;SDS011;28147;47.520;18.920;2023-11-21T02:20:40;7.25;;;2.10;;
42518;SDS011;28147;47.520;18.920;2023-11-21T02:23:07;4.72;;;2.55;;
42518;SDS011;28147;47.520;18.920;2023-11-21T02:25:33;3.80;;;1.88;;
42518;SDS011;28147;47.520;18.920;2023-11-21T02:30:34;3.55;;;1.77;;
42518;SDS011;28147;47.520;18.920;2023-11-21T02:33:18;7.18;;;2.95;;
42518;SDS011;28147;47.520;18.920;2023-11-21T02:35:45;8.55;;;2.70;;
42518;SDS011;28147;47.520;18.920;2023-11-21T02:38:10;6.15;;;2.00;;
42518;SDS011;28147;47.520;18.920;2023-11-21T02:40:36;4.78;;;2.08;;
42518;SDS011;28147;47.520;18.920;2023-11-21T02:43:01;5.22;;;2.40;;
42518;SDS011;28147;47.520;18.920;2023-11-21T02:45:27;5.45;;;1.90;;
42518;SDS011;28147;47.520;18.920;2023-11-21T02:47:52;3.97;;;2.10;;
42518;SDS011;28147;47.520;18.920;2023-11-21T02:50:21;8.10;;;2.55;;
42518;SDS011;28147;47.520;18.920;2023-11-21T02:52:47;6.38;;;2.00;;
42518;SDS011;28147;47.520;18.920;2023-11-21T02:55:13;5.40;;;2.17;;
42518;SDS011;28147;47.520;18.920;2023-11-21T02:57:47;3.63;;;2.08;;
42518;SDS011;28147;47.520;18.920;2023-11-21T03:00:12;5.82;;;2.50;;
42518;SDS011;28147;47.520;18.920;2023-11-21T03:02:40;7.13;;;2.00;;
42518;SDS011;28147;47.520;18.920;2023-11-21T03:05:06;5.25;;;2.13;;
42518;SDS011;28147;47.520;18.920;2023-11-21T03:07:40;4.70;;;1.88;;
42518;SDS011;28147;47.520;18.920;2023-11-21T03:13:49;3.60;;;1.52;;
42518;SDS011;28147;47.520;18.920;2023-11-21T03:16:38;3.45;;;1.75;;
42518;SDS011;28147;47.520;18.920;2023-11-21T03:19:06;5.75;;;1.58;;
42518;SDS011;28147;47.520;18.920;2023-11-21T03:21:33;3.38;;;1.67;;
42518;SDS011;28147;47.520;18.920;2023-11-21T03:26:46;3.85;;;1.40;;
42518;SDS011;28147;47.520;18.920;2023-11-21T03:32:36;5.65;;;1.40;;
42518;SDS011;28147;47.520;18.920;2023-11-21T03:35:31;3.67;;;1.30;;
42518;SDS011;28147;47.520;18.920;2023-11-21T03:37:57;1.75;;;1.05;;
42518;SDS011;28147;47.520;18.920;2023-11-21T03:40:23;2.55;;;0.90;;
42518;SDS011;28147;47.520;18.920;2023-11-21T03:45:18;3.15;;;1.10;;
42518;SDS011;28147;47.520;18.920;2023-11-21T03:47:44;3.95;;;1.55;;
42518;SDS011;28147;47.520;18.920;2023-11-21T03:50:09;5.07;;;1.33;;
42518;SDS011;28147;47.520;18.920;2023-11-21T03:52:35;3.75;;;1.20;;
42518;SDS011;28147;47.520;18.920;2023-11-21T03:55:01;3.95;;;1.17;;
42518;SDS011;28147;47.520;18.920;2023-11-21T03:57:27;3.95;;;1.65;;
42518;SDS011;28147;47.520;18.920;2023-11-21T03:59:53;6.00;;;1.73;;
42518;SDS011;28147;47.520;18.920;2023-11-21T04:02:19;5.78;;;1.58;;
42518;SDS011;28147;47.520;18.920;2023-11-21T04:04:44;2.63;;;1.25;;
42518;SDS011;28147;47.520;18.920;2023-11-21T04:07:10;3.30;;;1.42;;
42518;SDS011;28147;47.520;18.920;2023-11-21T04:10:21;2.55;;;1.50;;
42518;SDS011;28147;47.520;18.920;2023-11-21T04:12:47;3.35;;;1.00;;
42518;SDS011;28147;47.520;18.920;2023-11-21T04:16:10;3.22;;;1.35;;
42518;SDS011;28147;47.520;18.920;2023-11-21T04:18:36;4.35;;;1.52;;
42518;SDS011;28147;47.520;18.920;2023-11-21T04:21:26;3.20;;;1.23;;
42518;SDS011;28147;47.520;18.920;2023-11-21T04:23:51;4.97;;;1.60;;
42518;SDS011;28147;47.520;18.920;2023-11-21T04:26:16;4.88;;;1.98;;
42518;SDS011;28147;47.520;18.920;2023-11-21T04:28:54;8.32;;;2.90;;
42518;SDS011;28147;47.520;18.920;2023-11-21T04:31:20;7.10;;;2.97;;
42518;SDS011;28147;47.520;18.920;2023-11-21T04:33:45;9.95;;;2.75;;
42518;SDS011;28147;47.520;18.920;2023-11-21T04:36:10;4.75;;;2.08;;
42518;SDS011;28147;47.520;18.920;2023-11-21T04:38:36;5.95;;;2.20;;
42518;SDS011;28147;47.520;18.920;2023-11-21T04:45:42;6.35;;;1.67;;
42518;SDS011;28147;47.520;18.920;2023-11-21T04:48:07;5.20;;;1.88;;
42518;SDS011;28147;47.520;18.920;2023-11-21T04:50:33;3.05;;;1.65;;
42518;SDS011;28147;47.520;18.920;2023-11-21T04:55:25;5.70;;;1.77;;
42518;SDS011;28147;47.520;18.920;2023-11-21T04:57:53;5.10;;;1.92;;
42518;SDS011;28147;47.520;18.920;2023-11-21T05:00:19;3.22;;;1.50;;
42518;SDS011;28147;47.520;18.920;2023-11-21T05:02:46;4.93;;;1.70;;
42518;SDS011;28147;47.520;18.920;2023-11-21T05:05:12;4.28;;;1.65;;
42518;SDS011;28147;47.520;18.920;2023-11-21T05:07:39;3.33;;;1.60;;
42518;SDS011;28147;47.520;18.920;2023-11-21T05:10:05;7.07;;;2.00;;
42518;SDS011;28147;47.520;18.920;2023-11-21T05:12:33;4.70;;;1.92;;
42518;SDS011;28147;47.520;18.920;2023-11-21T05:15:07;4.95;;;1.92;;
42518;SDS011;28147;47.520;18.920;2023-11-21T05:17:36;3.45;;;1.73;;
42518;SDS011;28147;47.520;18.920;2023-11-21T05:20:03;3.60;;;1.73;;
42518;SDS011;28147;47.520;18.920;2023-11-21T05:22:33;6.63;;;2.30;;
42518;SDS011;28147;47.520;18.920;2023-11-21T05:24:59;3.85;;;1.73;;
42518;SDS011;28147;47.520;18.920;2023-11-21T05:27:25;5.03;;;2.17;;
42518;SDS011;28147;47.520;18.920;2023-11-21T05:29:50;6.32;;;2.42;;
42518;SDS011;28147;47.520;18.920;2023-11-21T05:32:16;3.42;;;1.80;;
42518;SDS011;28147;47.520;18.920;2023-11-21T05:34:42;5.53;;;2.70;;
42518;SDS011;28147;47.520;18.920;2023-11-21T05:37:08;8.50;;;4.13;;
42518;SDS011;28147;47.520;18.920;2023-11-21T05:39:33;11.25;;;5.53;;
42518;SDS011;28147;47.520;18.920;2023-11-21T05:41:59;9.70;;;3.60;;
42518;SDS011;28147;47.520;18.920;2023-11-21T05:44:25;6.60;;;2.85;;
42518;SDS011;28147;47.520;18.920;2023-11-21T05:46:50;8.35;;;3.50;;
42518;SDS011;28147;47.520;18.920;2023-11-21T05:49:16;4.82;;;2.40;;
42518;SDS011;28147;47.520;18.920;2023-11-21T05:51:41;5.63;;;2.28;;
42518;SDS011;28147;47.520;18.920;2023-11-21T05:54:07;5.88;;;2.33;;
42518;SDS011;28147;47.520;18.920;2023-11-21T05:56:33;3.83;;;1.88;;
42518;SDS011;28147;47.520;18.920;2023-11-21T05:58:59;4.32;;;2.30;;
42518;SDS011;28147;47.520;18.920;2023-11-21T06:01:25;4.20;;;2.42;;
42518;SDS011;28147;47.520;18.920;2023-11-21T06:03:53;5.60;;;2.33;;
42518;SDS011;28147;47.520;18.920;2023-11-21T06:06:19;3.00;;;1.58;;
42518;SDS011;28147;47.520;18.920;2023-11-21T06:08:45;3.90;;;1.52;;
42518;SDS011;28147;47.520;18.920;2023-11-21T06:11:10;3.55;;;1.40;;
42518;SDS011;28147;47.520;18.920;2023-11-21T06:13:36;4.00;;;1.40;;
42518;SDS011;28147;47.520;18.920;2023-11-21T06:18:08;6.10;;;1.92;;
42518;SDS011;28147;47.520;18.920;2023-11-21T06:20:35;5.32;;;2.30;;
42518;SDS011;28147;47.520;18.920;2023-11-21T06:23:02;5.72;;;1.98;;
42518;SDS011;28147;47.520;18.920;2023-11-21T06:25:28;3.92;;;1.85;;
42518;SDS011;28147;47.520;18.920;2023-11-21T06:27:54;3.90;;;1.65;;
42518;SDS011;28147;47.520;18.920;2023-11-21T06:30:20;4.60;;;1.77;;
42518;SDS011;28147;47.520;18.920;2023-11-21T06:32:46;5.55;;;2.25;;
42518;SDS011;28147;47.520;18.920;2023-11-21T06:35:12;4.75;;;2.15;;
42518;SDS011;28147;47.520;18.920;2023-11-21T06:37:38;7.28;;;3.88;;
42518;SDS011;28147;47.520;18.920;2023-11-21T06:40:03;14.98;;;5.95;;
42518;SDS011;28147;47.520;18.920;2023-11-21T06:42:29;15.57;;;6.63;;
42518;SDS011;28147;47.520;18.920;2023-11-21T06:44:55;14.20;;;7.57;;
42518;SDS011;28147;47.520;18.920;2023-11-21T06:47:24;21.02;;;12.90;;
42518;SDS011;28147;47.520;18.920;2023-11-21T06:49:50;21.63;;;12.18;;
42518;SDS011;28147;47.520;18.920;2023-11-21T06:52:16;17.50;;;9.65;;
42518;SDS011;28147;47.520;18.920;2023-11-21T06:54:43;16.42;;;8.82;;
42518;SDS011;28147;47.520;18.920;2023-11-21T06:57:08;10.68;;;5.72;;
42518;SDS011;28147;47.520;18.920;2023-11-21T06:59:34;11.98;;;5.70;;
42518;SDS011;28147;47.520;18.920;2023-11-21T07:01:59;7.70;;;4.00;;
42518;SDS011;28147;47.520;18.920;2023-11-21T07:04:25;7.03;;;3.80;;
42518;SDS011;28147;47.520;18.920;2023-11-21T07:06:53;5.95;;;3.42;;
42518;SDS011;28147;47.520;18.920;2023-11-21T07:09:19;8.48;;;3.50;;
42518;SDS011;28147;47.520;18.920;2023-11-21T07:11:48;7.53;;;3.72;;
42518;SDS011;28147;47.520;18.920;2023-11-21T07:14:14;8.45;;;3.28;;
42518;SDS011;28147;47.520;18.920;2023-11-21T07:16:40;6.00;;;3.45;;
42518;SDS011;28147;47.520;18.920;2023-11-21T07:19:06;10.38;;;3.70;;
42518;SDS011;28147;47.520;18.920;2023-11-21T07:21:35;10.52;;;4.97;;
42518;SDS011;28147;47.520;18.920;2023-11-21T07:24:01;6.85;;;3.53;;
42518;SDS011;28147;47.520;18.920;2023-11-21T07:26:28;7.40;;;3.63;;
42518;SDS011;28147;47.520;18.920;2023-11-21T07:28:53;8.38;;;3.85;;
42518;SDS011;28147;47.520;18.920;2023-11-21T07:31:19;8.32;;;3.67;;
42518;SDS011;28147;47.520;18.920;2023-11-21T07:33:45;7.32;;;3.40;;
42518;SDS011;28147;47.520;18.920;2023-11-21T07:36:17;7.40;;;3.28;;
42518;SDS011;28147;47.520;18.920;2023-11-21T07:38:43;7.60;;;3.40;;
42518;SDS011;28147;47.520;18.920;2023-11-21T07:41:10;9.60;;;3.55;;
42518;SDS011;28147;47.520;18.920;2023-11-21T07:43:36;8.13;;;3.47;;
42518;SDS011;28147;47.520;18.920;2023-11-21T07:46:02;8.63;;;3.90;;
42518;SDS011;28147;47.520;18.920;2023-11-21T07:48:32;6.35;;;3.30;;
42518;SDS011;28147;47.520;18.920;2023-11-21T07:50:58;8.27;;;2.65;;
42518;SDS011;28147;47.520;18.920;2023-11-21T07:53:24;6.28;;;2.72;;
42518;SDS011;28147;47.520;18.920;2023-11-21T07:55:50;5.85;;;2.70;;
42518;SDS011;28147;47.520;18.920;2023-11-21T07:58:17;4.57;;;2.50;;
42518;SDS011;28147;47.520;18.920;2023-11-21T08:00:43;5.63;;;2.67;;
42518;SDS011;28147;47.520;18.920;2023-11-21T08:03:08;6.18;;;2.70;;
42518;SDS011;28147;47.520;18.920;2023-11-21T08:05:34;5.63;;;2.50;;
42518;SDS011;28147;47.520;18.920;2023-11-21T08:07:59;5.60;;;2.45;;
42518;SDS011;28147;47.520;18.920;2023-11-21T08:10:25;4.43;;;2.40;;
42518;SDS011;28147;47.520;18.920;2023-11-21T08:12:51;7.05;;;2.90;;
42518;SDS011;28147;47.520;18.920;2023-11-21T08:15:16;5.20;;;2.55;;
42518;SDS011;28147;47.520;18.920;2023-11-21T08:17:42;6.75;;;2.30;;
42518;SDS011;28147;47.520;18.920;2023-11-21T08:20:07;5.88;;;2.65;;
42518;SDS011;28147;47.520;18.920;2023-11-21T08:22:35;6.47;;;2.80;;
42518;SDS011;28147;47.520;18.920;2023-11-21T08:25:01;5.07;;;2.72;;
42518;SDS011;28147;47.520;18.920;2023-11-21T08:27:29;8.70;;;2.85;;
42518;SDS011;28147;47.520;18.920;2023-11-21T08:29:55;7.85;;;3.38;;
42518;SDS011;28147;47.520;18.920;2023-11-21T08:32:22;4.82;;;2.75;;
42518;SDS011;28147;47.520;18.920;2023-11-21T08:34:47;7.28;;;3.58;;
42518;SDS011;28147;47.520;18.920;2023-11-21T08:37:16;7.57;;;3.47;;
42518;SDS011;28147;47.520;18.920;2023-11-21T08:39:45;6.97;;;3.00;;
42518;SDS011;28147;47.520;18.920;2023-11-21T08:42:10;6.07;;;3.08;;
42518;SDS011;28147;47.520;18.920;2023-11-21T08:44:36;8.70;;;3.15;;
42518;SDS011;28147;47.520;18.920;2023-11-21T08:47:01;6.65;;;2.70;;
42518;SDS011;28147;47.520;18.920;2023-11-21T08:49:26;12.50;;;3.60;;
42518;SDS011;28147;47.520;18.920;2023-11-21T08:51:54;9.35;;;4.53;;
42518;SDS011;28147;47.520;18.920;2023-11-21T08:54:20;11.13;;;3.95;;
42518;SDS011;28147;47.520;18.920;2023-11-21T08:56:46;7.43;;;3.17;;
42518;SDS011;28147;47.520;18.920;2023-11-21T08:59:11;9.18;;;3.05;;
42518;SDS011;28147;47.520;18.920;2023-11-21T09:01:39;5.38;;;3.35;;
42518;SDS011;28147;47.520;18.920;2023-11-21T09:04:05;8.77;;;3.22;;
42518;SDS011;28147;47.520;18.920;2023-11-21T09:06:31;5.80;;;3.53;;
42518;SDS011;28147;47.520;18.920;2023-11-21T09:08:56;7.05;;;3.20;;
42518;SDS011;28147;47.520;18.920;2023-11-21T09:11:22;10.93;;;3.20;;
42518;SDS011;28147;47.520;18.920;2023-11-21T09:13:48;7.55;;;3.92;;
42518;SDS011;28147;47.520;18.920;2023-11-21T09:16:14;6.75;;;3.08;;
42518;SDS011;28147;47.520;18.920;2023-11-21T09:18:40;7.88;;;3.05;;
42518;SDS011;28147;47.520;18.920;2023-11-21T09:21:06;9.27;;;3.42;;
42518;SDS011;28147;47.520;18.920;2023-11-21T09:23:31;9.15;;;3.42;;
42518;SDS011;28147;47.520;18.920;2023-11-21T09:25:57;8.05;;;3.28;;
42518;SDS011;28147;47.520;18.920;2023-11-21T09:28:24;8.82;;;3.40;;
42518;SDS011;28147;47.520;18.920;2023-11-21T09:30:52;10.05;;;3.88;;
42518;SDS011;28147;47.520;18.920;2023-11-21T09:33:18;7.72;;;3.72;;
42518;SDS011;28147;47.520;18.920;2023-11-21T09:35:43;13.13;;;4.80;;
42518;SDS011;28147;47.520;18.920;2023-11-21T09:38:09;16.05;;;4.32;;
42518;SDS011;28147;47.520;18.920;2023-11-21T09:40:36;9.13;;;4.38;;
42518;SDS011;28147;47.520;18.920;2023-11-21T09:43:06;10.40;;;4.77;;
42518;SDS011;28147;47.520;18.920;2023-11-21T09:45:40;6.70;;;3.80;;
42518;SDS011;28147;47.520;18.920;2023-11-21T09:48:11;8.15;;;3.78;;
42518;SDS011;28147;47.520;18.920;2023-11-21T09:50:38;6.30;;;3.17;;
42518;SDS011;28147;47.520;18.920;2023-11-21T09:53:13;7.80;;;3.08;;
42518;SDS011;28147;47.520;18.920;2023-11-21T09:55:44;6.10;;;3.40;;
42518;SDS011;28147;47.520;18.920;2023-11-21T09:58:11;6.25;;;2.55;;
42518;SDS011;28147;47.520;18.920;2023-11-21T10:00:45;10.95;;;3.40;;
42518;SDS011;28147;47.520;18.920;2023-11-21T10:03:12;7.18;;;2.85;;
42518;SDS011;28147;47.520;18.920;2023-11-21T10:05:39;10.15;;;3.00;;
42518;SDS011;28147;47.520;18.920;2023-11-21T10:08:07;5.93;;;3.00;;
42518;SDS011;28147;47.520;18.920;2023-11-21T10:10:35;5.60;;;2.28;;
42518;SDS011;28147;47.520;18.920;2023-11-21T10:13:03;5.45;;;2.55;;
42518;SDS011;28147;47.520;18.920;2023-11-21T10:15:33;4.80;;;2.70;;
42518;SDS011;28147;47.520;18.920;2023-11-21T10:18:00;6.05;;;2.60;;
42518;SDS011;28147;47.520;18.920;2023-11-21T10:20:34;9.10;;;2.83;;
42518;SDS011;28147;47.520;18.920;2023-11-21T10:23:00;4.95;;;2.42;;
42518;SDS011;28147;47.520;18.920;2023-11-21T10:25:29;5.00;;;2.50;;
42518;SDS011;28147;47.520;18.920;2023-11-21T10:28:01;6.95;;;3.00;;
42518;SDS011;28147;47.520;18.920;2023-11-21T10:30:35;4.28;;;2.42;;
42518;SDS011;28147;47.520;18.920;2023-11-21T10:33:03;6.07;;;2.53;;
42518;SDS011;28147;47.520;18.920;2023-11-21T10:38:26;8.63;;;4.28;;
42518;SDS011;28147;47.520;18.920;2023-11-21T10:40:53;6.97;;;3.28;;
42518;SDS011;28147;47.520;18.920;2023-11-21T10:43:20;11.95;;;2.88;;
42518;SDS011;28147;47.520;18.920;2023-11-21T10:45:50;5.68;;;2.65;;
42518;SDS011;28147;47.520;18.920;2023-11-21T10:48:16;8.95;;;3.00;;
42518;SDS011;28147;47.520;18.920;2023-11-21T10:50:42;8.80;;;2.97;;
42518;SDS011;28147;47.520;18.920;2023-11-21T10:53:09;16.33;;;6.22;;
42518;SDS011;28147;47.520;18.920;2023-11-21T10:55:34;13.82;;;4.88;;
42518;SDS011;28147;47.520;18.920;2023-11-21T10:58:01;11.15;;;4.53;;
42518;SDS011;28147;47.520;18.920;2023-11-21T11:00:29;6.38;;;2.70;;
42518;SDS011;28147;47.520;18.920;2023-11-21T11:02:55;11.13;;;2.47;;
42518;SDS011;28147;47.520;18.920;2023-11-21T11:05:22;6.05;;;2.75;;
42518;SDS011;28147;47.520;18.920;2023-11-21T11:07:51;6.53;;;2.83;;
42518;SDS011;28147;47.520;18.920;2023-11-21T11:10:25;5.00;;;2.85;;
42518;SDS011;28147;47.520;18.920;2023-11-21T11:12:53;4.53;;;2.55;;
42518;SDS011;28147;47.520;18.920;2023-11-21T11:15:19;7.40;;;2.78;;
42518;SDS011;28147;47.520;18.920;2023-11-21T11:17:45;7.97;;;3.38;;
42518;SDS011;28147;47.520;18.920;2023-11-21T11:20:12;8.27;;;3.38;;
42518;SDS011;28147;47.520;18.920;2023-11-21T11:22:48;7.30;;;3.22;;
42518;SDS011;28147;47.520;18.920;2023-11-21T11:25:30;7.13;;;3.17;;
42518;SDS011;28147;47.520;18.920;2023-11-21T11:28:17;6.85;;;3.03;;
42518;SDS011;28147;47.520;18.920;2023-11-21T11:33:53;7.70;;;3.35;;
42518;SDS011;28147;47.520;18.920;2023-11-21T11:36:48;10.30;;;3.38;;
42518;SDS011;28147;47.520;18.920;2023-11-21T11:39:29;9.40;;;3.15;;
42518;SDS011;28147;47.520;18.920;2023-11-21T11:41:56;5.85;;;2.78;;
42518;SDS011;28147;47.520;18.920;2023-11-21T11:44:46;6.95;;;3.05;;
42518;SDS011;28147;47.520;18.920;2023-11-21T11:49:58;8.05;;;2.75;;
42518;SDS011;28147;47.520;18.920;2023-11-21T11:52:46;6.07;;;3.00;;
42518;SDS011;28147;47.520;18.920;2023-11-21T11:55:14;6.90;;;3.10;;
42518;SDS011;28147;47.520;18.920;2023-11-21T11:57:43;8.88;;;3.63;;
42518;SDS011;28147;47.520;18.920;2023-11-21T12:00:18;8.70;;;3.33;;
42518;SDS011;28147;47.520;18.920;2023-11-21T12:02:56;6.30;;;3.05;;
42518;SDS011;28147;47.520;18.920;2023-11-21T12:05:23;7.13;;;2.70;;
42518;SDS011;28147;47.520;18.920;2023-11-21T12:10:23;4.88;;;2.47;;
42518;SDS011;28147;47.520;18.920;2023-11-21T12:13:08;5.15;;;2.53;;
42518;SDS011;28147;47.520;18.920;2023-11-21T12:15:37;6.38;;;3.08;;
42518;SDS011;28147;47.520;18.920;2023-11-21T12:18:03;9.50;;;3.75;;
42518;SDS011;28147;47.520;18.920;2023-11-21T12:20:30;10.30;;;4.32;;
42518;SDS011;28147;47.520;18.920;2023-11-21T12:23:03;10.07;;;4.60;;
42518;SDS011;28147;47.520;18.920;2023-11-21T12:25:30;11.35;;;4.15;;
42518;SDS011;28147;47.520;18.920;2023-11-21T12:28:00;7.53;;;3.05;;
42518;SDS011;28147;47.520;18.920;2023-11-21T12:30:31;6.45;;;2.85;;
42518;SDS011;28147;47.520;18.920;2023-11-21T12:33:01;6.57;;;2.72;;
42518;SDS011;28147;47.520;18.920;2023-11-21T12:35:27;6.88;;;3.50;;
42518;SDS011;28147;47.520;18.920;2023-11-21T12:37:55;6.63;;;3.25;;
42518;SDS011;28147;47.520;18.920;2023-11-21T12:40:24;10.32;;;4.50;;
42518;SDS011;28147;47.520;18.920;2023-11-21T12:42:53;9.02;;;3.90;;
42518;SDS011;28147;47.520;18.920;2023-11-21T12:45:23;6.50;;;3.42;;
42518;SDS011;28147;47.520;18.920;2023-11-21T12:50:22;6.23;;;3.00;;
42518;SDS011;28147;47.520;18.920;2023-11-21T12:52:49;5.65;;;2.42;;
42518;SDS011;28147;47.520;18.920;2023-11-21T12:55:16;5.43;;;2.00;;
42518;SDS011;28147;47.520;18.920;2023-11-21T12:57:43;4.32;;;1.85;;
42518;SDS011;28147;47.520;18.920;2023-11-21T13:00:10;3.88;;;1.52;;
42518;SDS011;28147;47.520;18.920;2023-11-21T13:02:52;5.70;;;1.60;;
42518;SDS011;28147;47.520;18.920;2023-11-21T13:05:33;3.70;;;1.58;;
42518;SDS011;28147;47.520;18.920;2023-11-21T13:08:03;4.20;;;1.50;;
42518;SDS011;28147;47.520;18.920;2023-11-21T13:10:32;5.18;;;2.00;;
42518;SDS011;28147;47.520;18.920;2023-11-21T13:13:02;3.00;;;1.63;;
42518;SDS011;28147;47.520;18.920;2023-11-21T13:15:30;3.87;;;1.60;;
42518;SDS011;28147;47.520;18.920;2023-11-21T13:17:57;4.75;;;2.13;;
42518;SDS011;28147;47.520;18.920;2023-11-21T13:20:24;3.75;;;1.33;;
42518;SDS011;28147;47.520;18.920;2023-11-21T13:22:51;4.43;;;1.55;;
42518;SDS011;28147;47.520;18.920;2023-11-21T13:25:27;3.47;;;1.55;;
42518;SDS011;28147;47.520;18.920;2023-11-21T13:27:54;7.57;;;1.67;;
42518;SDS011;28147;47.520;18.920;2023-11-21T13:30:19;7.47;;;1.65;;
42518;SDS011;28147;47.520;18.920;2023-11-21T13:32:51;3.58;;;1.42;;
42518;SDS011;28147;47.520;18.920;2023-11-21T13:35:17;2.70;;;1.40;;
42518;SDS011;28147;47.520;18.920;2023-11-21T13:37:49;2.88;;;1.52;;
42518;SDS011;28147;47.520;18.920;2023-11-21T13:40:19;5.82;;;1.27;;
42518;SDS011;28147;47.520;18.920;2023-11-21T13:42:47;4.25;;;1.20;;
42518;SDS011;28147;47.520;18.920;2023-11-21T13:45:14;5.90;;;1.40;;
42518;SDS011;28147;47.520;18.920;2023-11-21T13:47:39;2.90;;;1.20;;
42518;SDS011;28147;47.520;18.920;2023-11-21T13:50:05;3.95;;;1.20;;
42518;SDS011;28147;47.520;18.920;2023-11-21T13:52:39;3.42;;;1.55;;
42518;SDS011;28147;47.520;18.920;2023-11-21T13:55:04;3.38;;;1.45;;
42518;SDS011;28147;47.520;18.920;2023-11-21T13:57:32;2.85;;;1.55;;
42518;SDS011;28147;47.520;18.920;2023-11-21T13:59:58;4.00;;;1.52;;
42518;SDS011;28147;47.520;18.920;2023-11-21T14:02:24;3.17;;;1.42;;
42518;SDS011;28147;47.520;18.920;2023-11-21T14:04:57;5.18;;;2.15;;
42518;SDS011;28147;47.520;18.920;2023-11-21T14:07:25;5.97;;;2.65;;
42518;SDS011;28147;47.520;18.920;2023-11-21T14:10:00;7.22;;;2.65;;
42518;SDS011;28147;47.520;18.920;2023-11-21T14:12:30;4.43;;;2.35;;
42518;SDS011;28147;47.520;18.920;2023-11-21T14:14:59;8.07;;;3.00;;
42518;SDS011;28147;47.520;18.920;2023-11-21T14:17:25;6.03;;;2.85;;
42518;SDS011;28147;47.520;18.920;2023-11-21T14:19:50;7.03;;;2.80;;
42518;SDS011;28147;47.520;18.920;2023-11-21T14:22:15;5.20;;;2.50;;
42518;SDS011;28147;47.520;18.920;2023-11-21T14:24:42;6.00;;;2.85;;
42518;SDS011;28147;47.520;18.920;2023-11-21T14:27:11;6.38;;;3.42;;
42518;SDS011;28147;47.520;18.920;2023-11-21T14:29:38;6.20;;;2.50;;
42518;SDS011;28147;47.520;18.920;2023-11-21T14:32:07;3.97;;;2.33;;
42518;SDS011;28147;47.520;18.920;2023-11-21T14:34:33;4.60;;;2.38;;
42518;SDS011;28147;47.520;18.920;2023-11-21T14:36:58;5.47;;;2.33;;
42518;SDS011;28147;47.520;18.920;2023-11-21T14:39:24;5.63;;;2.30;;
42518;SDS011;28147;47.520;18.920;2023-11-21T14:41:52;5.43;;;2.15;;
42518;SDS011;28147;47.520;18.920;2023-11-21T14:44:20;4.47;;;2.25;;
42518;SDS011;28147;47.520;18.920;2023-11-21T14:46:50;6.35;;;2.65;;
42518;SDS011;28147;47.520;18.920;2023-11-21T14:49:16;4.28;;;1.80;;
42518;SDS011;28147;47.520;18.920;2023-11-21T14:51:48;4.07;;;1.42;;
42518;SDS011;28147;47.520;18.920;2023-11-21T14:54:31;5.03;;;1.45;;
42518;SDS011;28147;47.520;18.920;2023-11-21T14:57:06;2.05;;;1.10;;
42518;SDS011;28147;47.520;18.920;2023-11-21T14:59:44;2.90;;;1.20;;
42518;SDS011;28147;47.520;18.920;2023-11-21T15:02:17;4.25;;;1.40;;
42518;SDS011;28147;47.520;18.920;2023-11-21T15:04:47;3.28;;;1.23;;
42518;SDS011;28147;47.520;18.920;2023-11-21T15:07:13;2.42;;;1.10;;
42518;SDS011;28147;47.520;18.920;2023-11-21T15:09:39;5.13;;;1.10;;
42518;SDS011;28147;47.520;18.920;2023-11-21T15:12:08;2.90;;;1.43;;
42518;SDS011;28147;47.520;18.920;2023-11-21T15:14:46;4.00;;;1.58;;
42518;SDS011;28147;47.520;18.920;2023-11-21T15:17:15;4.07;;;1.30;;
42518;SDS011;28147;47.520;18.920;2023-11-21T15:19:55;3.47;;;1.05;;
42518;SDS011;28147;47.520;18.920;2023-11-21T15:22:21;3.13;;;1.20;;
42518;SDS011;28147;47.520;18.920;2023-11-21T15:24:47;2.83;;;1.20;;
42518;SDS011;28147;47.520;18.920;2023-11-21T15:27:14;4.78;;;1.95;;
42518;SDS011;28147;47.520;18.920;2023-11-21T15:29:40;7.15;;;3.35;;
42518;SDS011;28147;47.520;18.920;2023-11-21T15:32:09;6.30;;;1.60;;
42518;SDS011;28147;47.520;18.920;2023-11-21T15:34:35;5.25;;;1.92;;
42518;SDS011;28147;47.520;18.920;2023-11-21T15:37:01;5.50;;;2.28;;
42518;SDS011;28147;47.520;18.920;2023-11-21T15:39:28;5.25;;;2.10;;